Amboy, Illinois
Current Conditions -  °F | °C
As of 3:35 AM on Monday 24 Nov 2014 (Local Time) from KRPJ Reporting Station
Haze Haze  
Wind Chill: 41°   Ceiling: 200
Heat Index: 46°   Visibility: 1.2mi
Dew Point: 46°   Wind: 9mph
Humidity: 100%   Direction: 260°W
Pressure: 29.11"   Gusts: NA
Location:  41.71°N, 89.33°W
Report Text: KRPJ 240935Z AUTO 26008KT 1 1/4SM BR OVC002 08/08 A2911 RMK AO2 T00750075
Loading
Personal Weather Stations






























Interactive Weather Map New forecast layout! Learn more

10-Day Weather Forecast

Advertisements
Track Severe Weather on mobile